createdAt,value
2017-10-17T00:01:40.200Z,7.97
2017-10-17T00:04:08.572Z,8.60
2017-10-17T00:06:36.916Z,8.40
2017-10-17T00:09:05.259Z,7.67
2017-10-17T00:11:33.650Z,7.63
2017-10-17T00:14:02.004Z,7.90
2017-10-17T00:16:30.367Z,9.00
2017-10-17T00:18:58.746Z,8.47
2017-10-17T00:21:27.090Z,8.10
2017-10-17T00:23:55.470Z,7.93
2017-10-17T00:26:23.819Z,8.60
2017-10-17T00:28:52.223Z,8.67
2017-10-17T00:31:20.568Z,9.20
2017-10-17T00:33:48.912Z,7.83
2017-10-17T00:36:17.252Z,7.47
2017-10-17T00:38:46.189Z,8.30
2017-10-17T00:41:14.559Z,8.20
2017-10-17T00:43:42.912Z,7.77
2017-10-17T00:46:12.145Z,7.93
2017-10-17T00:48:40.584Z,7.93
2017-10-17T00:51:10.204Z,9.03
2017-10-17T00:53:38.875Z,7.57
2017-10-17T00:56:07.879Z,8.50
2017-10-17T00:58:36.285Z,7.30
2017-10-17T01:01:04.636Z,7.93
2017-10-17T01:03:32.983Z,8.20
2017-10-17T01:06:02.256Z,8.20
2017-10-17T01:08:30.608Z,7.23
2017-10-17T01:10:58.986Z,8.27
2017-10-17T01:13:27.367Z,7.60
2017-10-17T01:15:55.753Z,8.40
2017-10-17T01:18:24.124Z,8.97
2017-10-17T01:20:56.841Z,8.33
2017-10-17T01:23:43.431Z,8.17
2017-10-17T01:26:26.665Z,7.87
2017-10-17T01:28:57.549Z,8.83
2017-10-17T01:31:25.916Z,8.53
2017-10-17T01:33:54.276Z,8.00
2017-10-17T01:36:22.636Z,8.53
2017-10-17T01:38:53.592Z,7.57
2017-10-17T01:41:21.936Z,7.83
2017-10-17T01:43:56.804Z,9.33
2017-10-17T01:46:25.849Z,8.90
2017-10-17T01:48:56.851Z,8.03
2017-10-17T01:51:46.695Z,8.03
2017-10-17T01:54:21.523Z,9.23
2017-10-17T01:56:49.903Z,8.27
2017-10-17T01:59:20.879Z,9.57
2017-10-17T02:01:49.252Z,8.70
2017-10-17T02:04:17.600Z,8.40
2017-10-17T02:06:45.960Z,8.30
2017-10-17T02:09:14.359Z,9.13
2017-10-17T02:11:42.728Z,7.97
2017-10-17T02:14:11.072Z,9.30
2017-10-17T02:16:39.439Z,8.40
2017-10-17T02:19:07.782Z,8.77
2017-10-17T02:21:36.133Z,8.30
2017-10-17T02:24:04.499Z,9.30
2017-10-17T02:26:32.851Z,9.47
2017-10-17T02:29:01.200Z,8.97
2017-10-17T02:31:30.307Z,8.53
2017-10-17T02:34:01.119Z,10.23
2017-10-17T02:36:29.468Z,9.27
2017-10-17T02:38:57.853Z,9.40
2017-10-17T02:41:26.240Z,10.10
2017-10-17T02:43:57.079Z,9.17
2017-10-17T02:46:25.452Z,9.20
2017-10-17T02:51:48.829Z,9.33
2017-10-17T02:54:17.250Z,10.10
2017-10-17T02:56:45.907Z,9.10
2017-10-17T02:59:16.744Z,9.80
2017-10-17T03:01:48.947Z,9.37
2017-10-17T03:07:19.899Z,9.40
2017-10-17T03:09:48.259Z,10.77
2017-10-17T03:12:16.635Z,9.87
2017-10-17T03:15:08.521Z,9.77
2017-10-17T03:17:36.912Z,9.80
2017-10-17T03:20:05.282Z,9.23
2017-10-17T03:22:33.634Z,10.30
2017-10-17T03:25:19.643Z,9.77
2017-10-17T03:27:48.000Z,10.70
2017-10-17T03:30:16.377Z,10.40
2017-10-17T03:32:46.128Z,9.50
2017-10-17T03:35:15.980Z,9.60
2017-10-17T03:38:02.410Z,9.00
2017-10-17T03:43:45.994Z,10.40
2017-10-17T03:46:14.064Z,10.00
2017-10-17T03:48:42.645Z,10.67
2017-10-17T03:51:10.716Z,10.20
2017-10-17T03:53:51.472Z,10.87
2017-10-17T03:56:30.351Z,10.30
2017-10-17T03:59:05.067Z,11.77
2017-10-17T04:01:33.173Z,10.60
2017-10-17T04:04:04.024Z,10.50
2017-10-17T04:06:44.665Z,10.30
2017-10-17T04:09:12.740Z,10.83
2017-10-17T04:11:40.816Z,11.70
2017-10-17T04:14:12.796Z,12.00
2017-10-17T04:16:42.367Z,12.50
2017-10-17T04:19:11.175Z,11.43
2017-10-17T04:24:45.364Z,12.50
2017-10-17T04:27:20.173Z,12.97
2017-10-17T04:29:57.796Z,11.63
2017-10-17T04:32:37.407Z,11.20
2017-10-17T04:35:08.909Z,11.67
2017-10-17T04:37:50.745Z,13.30
2017-10-17T04:40:20.593Z,12.80
2017-10-17T04:43:04.169Z,12.27
2017-10-17T04:45:47.610Z,13.47
2017-10-17T04:51:38.964Z,12.37
2017-10-17T04:54:12.336Z,12.30
2017-10-17T04:56:41.097Z,11.80
2017-10-17T05:02:29.343Z,14.30
2017-10-17T05:04:59.070Z,13.67
2017-10-17T05:07:29.791Z,12.27
2017-10-17T05:10:29.211Z,13.70
2017-10-17T05:16:05.672Z,13.83
2017-10-17T05:18:40.253Z,13.70
2017-10-17T05:21:08.388Z,13.00
2017-10-17T05:26:41.008Z,14.60
2017-10-17T05:29:13.744Z,14.87
2017-10-17T05:31:43.596Z,14.23
2017-10-17T05:34:30.473Z,14.30
2017-10-17T05:37:01.391Z,14.90
2017-10-17T05:39:33.613Z,13.93
2017-10-17T05:42:01.700Z,14.73
2017-10-17T05:44:46.627Z,14.93
2017-10-17T05:47:36.336Z,16.57
2017-10-17T05:50:15.894Z,16.63
2017-10-17T05:52:47.873Z,15.20
2017-10-17T05:55:15.944Z,18.00
2017-10-17T05:57:44.024Z,15.37
2017-10-17T06:00:12.131Z,17.53
2017-10-17T06:02:40.231Z,14.57
2017-10-17T06:05:08.312Z,16.67
2017-10-17T06:07:36.428Z,17.47
2017-10-17T06:10:04.551Z,15.17
2017-10-17T06:12:33.320Z,16.80
2017-10-17T06:15:01.437Z,16.30
2017-10-17T06:17:31.579Z,16.23
2017-10-17T06:19:59.931Z,17.17
2017-10-17T06:22:28.308Z,16.03
2017-10-17T06:24:57.374Z,16.77
2017-10-17T06:27:25.888Z,16.20
2017-10-17T06:29:54.292Z,16.83
2017-10-17T06:32:22.661Z,17.27
2017-10-17T06:34:51.028Z,16.80
2017-10-17T06:37:19.414Z,15.07
2017-10-17T06:39:47.808Z,15.67
2017-10-17T06:42:16.192Z,16.10
2017-10-17T06:44:44.588Z,17.20
2017-10-17T06:47:12.972Z,16.20
2017-10-17T06:49:41.402Z,15.93
2017-10-17T06:52:09.751Z,17.07
2017-10-17T06:54:38.121Z,16.30
2017-10-17T06:57:06.536Z,15.97
2017-10-17T06:59:34.896Z,16.17
2017-10-17T07:02:03.260Z,16.23
2017-10-17T07:04:31.656Z,15.40
2017-10-17T07:07:00.020Z,15.97
2017-10-17T07:09:28.420Z,16.30
2017-10-17T07:11:56.787Z,14.37
2017-10-17T07:14:25.142Z,16.30
2017-10-17T07:16:53.534Z,18.63
2017-10-17T07:19:21.885Z,17.30
2017-10-17T07:21:50.260Z,18.17
2017-10-17T07:24:18.620Z,18.00
2017-10-17T07:26:47.298Z,17.23
2017-10-17T07:29:16.095Z,17.83
2017-10-17T07:31:44.831Z,17.90
2017-10-17T07:34:13.648Z,17.30
2017-10-17T07:36:42.380Z,18.00
2017-10-17T07:39:11.706Z,18.17
2017-10-17T07:41:40.462Z,18.30
2017-10-17T07:44:10.553Z,18.43
2017-10-17T07:46:39.280Z,17.67
2017-10-17T07:49:08.012Z,16.90
2017-10-17T07:51:36.764Z,17.50
2017-10-17T07:54:05.566Z,17.47
2017-10-17T07:56:34.557Z,17.47
2017-10-17T07:59:03.280Z,18.10
2017-10-17T08:01:33.741Z,17.67
2017-10-17T08:04:02.676Z,17.90
2017-10-17T08:06:31.417Z,19.10
2017-10-17T08:09:00.333Z,18.27
2017-10-17T08:11:30.443Z,18.50
2017-10-17T08:14:00.111Z,17.50
2017-10-17T08:16:28.923Z,19.53
2017-10-17T08:18:58.483Z,17.53
2017-10-17T08:21:28.028Z,17.67
2017-10-17T08:23:57.277Z,17.50
2017-10-17T08:26:26.070Z,16.00
2017-10-17T08:28:54.975Z,17.40
2017-10-17T08:31:24.794Z,16.87
2017-10-17T08:33:55.165Z,16.77
2017-10-17T08:36:23.853Z,16.00
2017-10-17T08:38:52.653Z,14.77
2017-10-17T08:41:21.379Z,14.53
2017-10-17T08:43:50.074Z,15.27
2017-10-17T08:46:19.755Z,16.40
2017-10-17T08:48:50.126Z,16.10
2017-10-17T08:51:19.821Z,13.77
2017-10-17T08:53:48.598Z,16.40
2017-10-17T08:56:17.361Z,14.93
2017-10-17T08:58:46.877Z,15.67
2017-10-17T09:01:15.619Z,15.00
2017-10-17T09:03:44.962Z,15.67
2017-10-17T09:06:13.947Z,16.97
2017-10-17T09:08:42.674Z,15.90
2017-10-17T09:11:11.492Z,17.83
2017-10-17T09:13:40.143Z,15.93
2017-10-17T09:16:08.897Z,17.73
2017-10-17T09:18:37.660Z,17.87
2017-10-17T09:21:06.456Z,18.17
2017-10-17T09:23:35.358Z,18.30
2017-10-17T09:26:04.797Z,17.20
2017-10-17T09:28:33.987Z,17.77
2017-10-17T09:31:03.151Z,16.47
2017-10-17T09:33:33.045Z,16.03
2017-10-17T09:36:02.122Z,17.30
2017-10-17T09:38:31.839Z,17.30
2017-10-17T09:41:00.596Z,16.80
2017-10-17T09:43:29.308Z,16.60
2017-10-17T09:45:58.040Z,16.53
2017-10-17T09:48:26.875Z,16.70
2017-10-17T09:50:56.077Z,16.87
2017-10-17T09:53:24.764Z,16.70
2017-10-17T09:55:53.604Z,15.60
2017-10-17T09:58:22.359Z,16.63
2017-10-17T10:00:50.803Z,17.47
2017-10-17T10:03:19.198Z,17.50
2017-10-17T10:05:47.584Z,16.50
2017-10-17T10:08:15.948Z,17.13
2017-10-17T10:10:44.327Z,16.23
2017-10-17T10:13:12.684Z,18.27
2017-10-17T10:15:41.947Z,18.07
2017-10-17T10:18:11.256Z,18.97
2017-10-17T10:20:39.609Z,17.20
2017-10-17T10:23:07.968Z,16.70
2017-10-17T10:25:36.337Z,15.50
2017-10-17T10:28:04.724Z,16.60
2017-10-17T10:30:33.121Z,15.87
2017-10-17T10:33:01.488Z,17.53
2017-10-17T10:35:29.901Z,17.03
2017-10-17T10:37:58.509Z,16.20
2017-10-17T10:40:28.176Z,16.40
2017-10-17T10:42:57.631Z,17.27
2017-10-17T10:45:26.417Z,16.50
2017-10-17T10:47:56.126Z,17.00
2017-10-17T10:50:24.750Z,17.20
2017-10-17T10:52:53.555Z,16.93
2017-10-17T10:55:22.518Z,17.10
2017-10-17T10:57:51.279Z,16.63
2017-10-17T11:00:20.053Z,16.37
2017-10-17T11:02:48.883Z,18.00
2017-10-17T11:05:19.179Z,16.47
2017-10-17T11:07:52.655Z,16.50
2017-10-17T11:10:22.068Z,17.67
2017-10-17T11:12:50.784Z,17.40
2017-10-17T11:15:20.758Z,16.67
2017-10-17T11:17:53.147Z,18.50
2017-10-17T11:20:22.826Z,17.50
2017-10-17T11:22:52.011Z,16.40
2017-10-17T11:25:20.770Z,17.40
2017-10-17T11:27:50.497Z,18.60
2017-10-17T11:30:19.512Z,17.23
2017-10-17T11:32:48.227Z,16.50
2017-10-17T11:35:16.901Z,18.10
2017-10-17T11:37:45.781Z,17.03
2017-10-17T11:40:17.472Z,17.20
2017-10-17T11:42:58.753Z,18.40
2017-10-17T11:45:27.484Z,17.03
2017-10-17T11:47:56.247Z,17.97
2017-10-17T11:50:25.987Z,17.03
2017-10-17T11:52:54.704Z,16.90
2017-10-17T11:55:23.576Z,17.60
2017-10-17T11:57:52.287Z,17.30
2017-10-17T12:00:21.111Z,17.13
2017-10-17T12:02:50.265Z,16.83
2017-10-17T12:05:19.143Z,17.87
2017-10-17T12:07:47.850Z,18.03
2017-10-17T12:10:16.874Z,16.10
2017-10-17T12:12:45.708Z,17.70
2017-10-17T12:15:15.333Z,16.17
2017-10-17T12:17:44.112Z,17.27
2017-10-17T12:20:13.822Z,15.70
2017-10-17T12:22:42.600Z,16.67
2017-10-17T12:25:11.653Z,16.80
2017-10-17T12:27:40.435Z,15.63
2017-10-17T12:30:09.172Z,17.30
2017-10-17T12:32:37.913Z,16.57
2017-10-17T12:35:06.981Z,15.37
2017-10-17T12:37:36.538Z,18.13
2017-10-17T12:40:06.812Z,17.57
2017-10-17T12:42:36.256Z,17.37
2017-10-17T12:45:04.685Z,17.37
2017-10-17T12:47:33.063Z,18.10
2017-10-17T12:50:01.417Z,17.23
2017-10-17T12:52:29.804Z,18.40
2017-10-17T12:54:58.179Z,16.50
2017-10-17T12:57:26.564Z,17.60
2017-10-17T12:59:54.951Z,16.80
2017-10-17T13:02:23.336Z,17.10
2017-10-17T13:04:51.705Z,18.33
2017-10-17T13:07:20.060Z,15.90
2017-10-17T13:09:48.701Z,17.20
2017-10-17T13:12:17.176Z,17.30
2017-10-17T13:14:45.591Z,17.50
2017-10-17T13:17:14.283Z,16.27
2017-10-17T13:19:44.712Z,17.20
2017-10-17T13:22:14.434Z,16.83
2017-10-17T13:24:43.167Z,17.27
2017-10-17T13:27:12.026Z,17.20
2017-10-17T13:29:40.759Z,17.60
2017-10-17T13:32:09.606Z,17.03
2017-10-17T13:34:38.224Z,16.67
2017-10-17T13:37:07.127Z,19.10
2017-10-17T13:39:37.395Z,18.87
2017-10-17T13:42:06.939Z,15.63
2017-10-17T13:44:37.698Z,17.50
2017-10-17T13:47:07.334Z,17.97
2017-10-17T13:49:36.316Z,17.03
2017-10-17T13:52:06.062Z,17.40
2017-10-17T13:54:35.071Z,15.50
2017-10-17T13:57:03.929Z,17.20
2017-10-17T13:59:33.599Z,16.80
2017-10-17T14:02:03.474Z,17.47
2017-10-17T14:04:32.206Z,17.90
2017-10-17T14:07:02.422Z,17.30
2017-10-17T14:09:32.057Z,17.07
2017-10-17T14:12:03.102Z,17.57
2017-10-17T14:14:33.655Z,17.60
2017-10-17T14:17:02.916Z,15.47
2017-10-17T14:19:33.941Z,16.63
2017-10-17T14:22:03.162Z,17.40
2017-10-17T14:24:31.962Z,16.40
2017-10-17T14:27:00.930Z,17.50
2017-10-17T14:29:29.712Z,16.93
2017-10-17T14:31:59.503Z,17.10
2017-10-17T14:34:28.330Z,16.93
2017-10-17T14:36:57.055Z,16.67
2017-10-17T14:39:26.034Z,16.73
2017-10-17T14:41:55.989Z,17.50
2017-10-17T14:44:26.394Z,16.93
2017-10-17T14:46:57.141Z,16.33
2017-10-17T14:49:26.816Z,18.83
2017-10-17T14:51:56.366Z,17.83
2017-10-17T14:54:25.280Z,17.17
2017-10-17T14:56:55.746Z,16.27
2017-10-17T14:59:24.486Z,17.50
2017-10-17T15:01:54.010Z,17.60
2017-10-17T15:04:23.889Z,19.30
2017-10-17T15:06:52.664Z,17.90
2017-10-17T15:09:21.210Z,19.30
2017-10-17T15:11:51.192Z,17.40
2017-10-17T15:14:20.967Z,22.90
2017-10-17T15:16:50.141Z,22.47
2017-10-17T15:19:19.768Z,20.80
2017-10-17T15:21:48.780Z,21.60
2017-10-17T15:24:18.780Z,20.00
2017-10-17T15:26:47.574Z,19.60
2017-10-17T15:29:19.121Z,19.77
2017-10-17T15:31:48.486Z,16.70
2017-10-17T15:34:19.223Z,17.53
2017-10-17T15:36:47.669Z,17.93
2017-10-17T15:39:16.020Z,15.40
2017-10-17T15:41:44.406Z,18.47
2017-10-17T15:44:13.113Z,17.30
2017-10-17T15:46:41.970Z,18.43
2017-10-17T15:49:10.703Z,18.67
2017-10-17T15:51:39.530Z,18.53
2017-10-17T15:54:09.834Z,19.10
2017-10-17T15:56:38.504Z,23.87
2017-10-17T15:59:08.453Z,26.07
2017-10-17T16:01:37.504Z,18.00
2017-10-17T16:04:06.531Z,18.37
2017-10-17T16:06:35.195Z,18.60
2017-10-17T16:09:05.564Z,18.80
2017-10-17T16:11:33.978Z,19.00
2017-10-17T16:14:02.475Z,19.80
2017-10-17T16:16:30.911Z,19.20
2017-10-17T16:18:59.316Z,19.00
2017-10-17T16:21:27.680Z,18.57
2017-10-17T16:23:56.065Z,20.43
2017-10-17T16:26:24.512Z,18.83
2017-10-17T16:28:52.880Z,19.97
2017-10-17T16:31:21.232Z,21.13
2017-10-17T16:33:49.591Z,22.17
2017-10-17T16:36:17.973Z,21.77
2017-10-17T16:38:46.333Z,21.23
2017-10-17T16:41:15.062Z,18.70
2017-10-17T16:43:47.239Z,20.47
2017-10-17T16:46:15.800Z,20.90
2017-10-17T16:48:44.358Z,22.60
2017-10-17T16:51:12.877Z,23.00
2017-10-17T16:53:41.467Z,20.77
2017-10-17T16:56:10.109Z,20.40
2017-10-17T16:58:39.530Z,21.23
2017-10-17T17:01:08.007Z,22.07
2017-10-17T17:03:36.701Z,19.50
2017-10-17T17:06:05.354Z,21.33
2017-10-17T17:08:33.787Z,20.43
2017-10-17T17:11:02.436Z,20.70
2017-10-17T17:13:33.050Z,21.47
2017-10-17T17:16:01.672Z,21.77
2017-10-17T17:18:30.303Z,20.83
2017-10-17T17:21:00.181Z,21.17
2017-10-17T17:23:29.594Z,21.10
2017-10-17T17:25:58.340Z,21.97
2017-10-17T17:28:27.073Z,23.23
2017-10-17T17:30:55.696Z,22.80
2017-10-17T17:33:24.077Z,22.40
2017-10-17T17:35:52.436Z,23.50
2017-10-17T17:38:20.824Z,23.80
2017-10-17T17:40:49.203Z,21.80
2017-10-17T17:43:17.588Z,23.33
2017-10-17T17:48:35.856Z,23.60
2017-10-17T17:51:10.321Z,23.40
2017-10-17T17:53:42.739Z,24.23
2017-10-17T18:01:50.596Z,23.37
2017-10-17T18:04:20.339Z,23.03
2017-10-17T18:06:48.753Z,24.90
2017-10-17T18:09:17.184Z,23.47
2017-10-17T18:11:45.541Z,24.03
2017-10-17T18:14:13.912Z,24.73
2017-10-17T18:16:42.273Z,25.33
2017-10-17T18:19:10.635Z,25.67
2017-10-17T18:21:39.023Z,25.63
2017-10-17T18:24:07.397Z,24.57
2017-10-17T18:26:35.791Z,25.30
2017-10-17T18:29:04.155Z,24.50
2017-10-17T18:31:32.521Z,24.50
2017-10-17T18:34:00.881Z,24.97
2017-10-17T18:36:29.249Z,25.77
2017-10-17T18:39:05.228Z,26.17
2017-10-17T18:44:41.236Z,25.57
2017-10-17T18:47:15.223Z,25.40
2017-10-17T18:49:56.498Z,23.57
2017-10-17T18:52:31.361Z,25.83
2017-10-17T18:55:02.421Z,25.33
2017-10-17T18:57:30.916Z,26.00
2017-10-17T18:59:59.461Z,25.73
2017-10-17T19:02:28.147Z,27.10
2017-10-17T19:04:56.824Z,25.20
2017-10-17T19:07:25.410Z,24.40
2017-10-17T19:09:54.039Z,26.53
2017-10-17T19:12:22.545Z,26.40
2017-10-17T19:14:51.098Z,26.00
2017-10-17T19:17:19.766Z,25.40
2017-10-17T19:19:48.336Z,26.30
2017-10-17T19:22:16.807Z,25.80
2017-10-17T19:24:45.229Z,25.83
2017-10-17T19:27:13.606Z,26.07
2017-10-17T19:29:42.054Z,26.63
2017-10-17T19:32:10.439Z,27.30
2017-10-17T19:34:38.877Z,26.50
2017-10-17T19:37:07.444Z,26.00
2017-10-17T19:39:35.881Z,26.50
2017-10-17T19:42:04.272Z,26.23
2017-10-17T19:44:32.656Z,28.17
2017-10-17T19:47:01.020Z,28.70
2017-10-17T19:49:30.163Z,26.90
2017-10-17T19:51:59.638Z,24.43
2017-10-17T19:54:28.170Z,26.73
2017-10-17T19:56:56.790Z,26.03
2017-10-17T19:59:25.501Z,27.47
2017-10-17T20:01:54.108Z,27.17
2017-10-17T20:04:22.751Z,27.57
2017-10-17T20:06:51.372Z,27.27
2017-10-17T20:09:20.005Z,29.13
2017-10-17T20:11:48.690Z,27.80
2017-10-17T20:14:17.303Z,27.60
2017-10-17T20:16:45.980Z,26.23
2017-10-17T20:19:14.644Z,27.83
2017-10-17T20:21:43.386Z,30.00
2017-10-17T20:24:12.125Z,29.73
2017-10-17T20:26:40.706Z,28.57
2017-10-17T20:29:09.130Z,27.10
2017-10-17T20:31:37.500Z,27.03
2017-10-17T20:34:05.937Z,27.23
2017-10-17T20:36:38.672Z,27.20
2017-10-17T20:39:09.550Z,25.33
2017-10-17T20:41:38.112Z,26.97
2017-10-17T20:44:06.520Z,25.43
2017-10-17T20:46:36.675Z,27.50
2017-10-17T20:49:05.331Z,26.07
2017-10-17T20:51:33.705Z,27.80
2017-10-17T20:54:02.078Z,26.10
2017-10-17T20:56:30.464Z,27.30
2017-10-17T20:58:58.821Z,26.90
2017-10-17T21:01:27.188Z,26.70
2017-10-17T21:03:55.719Z,25.70
2017-10-17T21:06:24.084Z,28.47
2017-10-17T21:08:52.476Z,26.80
2017-10-17T21:11:20.840Z,27.07
2017-10-17T21:13:49.232Z,27.40
2017-10-17T21:16:17.579Z,27.10
2017-10-17T21:18:45.976Z,23.90
2017-10-17T21:21:14.369Z,31.27
2017-10-17T21:23:42.730Z,31.60
2017-10-17T21:26:11.094Z,32.37
2017-10-17T21:28:39.449Z,30.43
2017-10-17T21:31:07.810Z,32.70
2017-10-17T21:33:36.176Z,28.07
2017-10-17T21:36:04.572Z,29.40
2017-10-17T21:38:32.936Z,28.23
2017-10-17T21:41:01.316Z,28.60
2017-10-17T21:43:29.676Z,29.80
2017-10-17T21:45:58.055Z,31.30
2017-10-17T21:48:26.476Z,31.67
2017-10-17T21:50:54.842Z,30.10
2017-10-17T21:53:23.196Z,27.77
2017-10-17T21:55:51.556Z,28.13
2017-10-17T21:58:19.924Z,27.50
2017-10-17T22:00:59.905Z,29.70
2017-10-17T22:03:28.600Z,29.93
2017-10-17T22:08:32.682Z,29.00
2017-10-17T22:11:01.347Z,29.60
2017-10-17T22:13:30.114Z,30.70
2017-10-17T22:15:58.809Z,30.10
2017-10-17T22:18:27.285Z,28.97
2017-10-17T22:20:55.641Z,28.73
2017-10-17T22:23:24.012Z,27.90
2017-10-17T22:25:52.367Z,28.07
2017-10-17T22:28:20.761Z,28.70
2017-10-17T22:30:49.153Z,28.50
2017-10-17T22:33:17.512Z,27.83
2017-10-17T22:35:45.876Z,30.17
2017-10-17T22:38:14.237Z,32.93
2017-10-17T22:40:42.594Z,33.30
2017-10-17T22:43:10.959Z,30.17
2017-10-17T22:45:39.343Z,30.53
2017-10-17T22:48:07.703Z,34.57
2017-10-17T22:50:36.064Z,30.90
2017-10-17T22:53:04.433Z,35.60
2017-10-17T22:55:32.800Z,35.13
2017-10-17T22:58:01.163Z,30.90
2017-10-17T23:00:29.516Z,32.60
2017-10-17T23:02:57.877Z,33.97
2017-10-17T23:05:26.279Z,30.87
2017-10-17T23:07:54.642Z,33.07
2017-10-17T23:10:22.999Z,33.30
2017-10-17T23:12:51.377Z,32.47
2017-10-17T23:15:19.741Z,29.97
2017-10-17T23:17:59.767Z,31.50
2017-10-17T23:20:38.104Z,32.40
2017-10-17T23:23:06.500Z,35.47
2017-10-17T23:25:34.864Z,34.17
2017-10-17T23:28:03.220Z,34.73
2017-10-17T23:30:31.644Z,34.10
2017-10-17T23:33:00.004Z,35.20
2017-10-17T23:35:28.395Z,33.90
2017-10-17T23:37:56.794Z,34.60
2017-10-17T23:40:25.191Z,37.07
2017-10-17T23:42:53.552Z,35.07
2017-10-17T23:45:21.907Z,34.63
2017-10-17T23:47:50.296Z,33.23
2017-10-17T23:50:18.656Z,35.20
2017-10-17T23:52:47.020Z,36.27
2017-10-17T23:55:15.376Z,32.37
2017-10-17T23:57:43.748Z,32.37
